sensor_id;sensor_type;location;lat;lon;timestamp;temperature;humidity
25918;DHT22;13899;51.174;4.456;2022-10-16T00:01:25;13.80;99.90
25918;DHT22;13899;51.174;4.456;2022-10-16T00:03:52;13.80;99.90
25918;DHT22;13899;51.174;4.456;2022-10-16T00:06:20;13.80;99.90
25918;DHT22;13899;51.174;4.456;2022-10-16T00:08:47;13.80;99.90
25918;DHT22;13899;51.174;4.456;2022-10-16T00:11:19;13.80;99.90
25918;DHT22;13899;51.174;4.456;2022-10-16T00:13:46;13.80;99.90
25918;DHT22;13899;51.174;4.456;2022-10-16T00:16:13;13.90;99.90
25918;DHT22;13899;51.174;4.456;2022-10-16T00:18:39;13.90;99.90
25918;DHT22;13899;51.174;4.456;2022-10-16T00:21:09;13.90;99.90
25918;DHT22;13899;51.174;4.456;2022-10-16T00:23:36;13.80;99.90
25918;DHT22;13899;51.174;4.456;2022-10-16T00:26:05;13.80;99.90
25918;DHT22;13899;51.174;4.456;2022-10-16T00:28:31;13.90;99.90
25918;DHT22;13899;51.174;4.456;2022-10-16T00:30:57;13.80;99.90
25918;DHT22;13899;51.174;4.456;2022-10-16T00:33:23;13.80;99.90
25918;DHT22;13899;51.174;4.456;2022-10-16T00:35:49;13.80;99.90
25918;DHT22;13899;51.174;4.456;2022-10-16T00:38:15;13.80;99.90
25918;DHT22;13899;51.174;4.456;2022-10-16T00:40:41;13.80;99.90
25918;DHT22;13899;51.174;4.456;2022-10-16T00:43:32;13.80;99.90
25918;DHT22;13899;51.174;4.456;2022-10-16T00:46:00;13.70;99.90
25918;DHT22;13899;51.174;4.456;2022-10-16T00:48:25;13.80;99.90
25918;DHT22;13899;51.174;4.456;2022-10-16T00:50:51;13.80;99.90
25918;DHT22;13899;51.174;4.456;2022-10-16T00:53:17;13.70;99.90
25918;DHT22;13899;51.174;4.456;2022-10-16T00:55:43;13.70;99.90
25918;DHT22;13899;51.174;4.456;2022-10-16T00:58:09;13.70;99.90
25918;DHT22;13899;51.174;4.456;2022-10-16T01:00:35;13.70;99.90
25918;DHT22;13899;51.174;4.456;2022-10-16T01:03:02;13.70;99.90
25918;DHT22;13899;51.174;4.456;2022-10-16T01:05:39;13.70;99.90
25918;DHT22;13899;51.174;4.456;2022-10-16T01:09:00;13.60;99.90
25918;DHT22;13899;51.174;4.456;2022-10-16T01:14:17;13.70;99.90
25918;DHT22;13899;51.174;4.456;2022-10-16T01:16:52;13.60;99.90
25918;DHT22;13899;51.174;4.456;2022-10-16T01:19:32;13.60;99.90
25918;DHT22;13899;51.174;4.456;2022-10-16T01:22:02;13.60;99.90
25918;DHT22;13899;51.174;4.456;2022-10-16T01:24:46;13.60;99.90
25918;DHT22;13899;51.174;4.456;2022-10-16T01:27:25;13.50;99.90
25918;DHT22;13899;51.174;4.456;2022-10-16T01:37:42;13.40;99.90
25918;DHT22;13899;51.174;4.456;2022-10-16T01:40:14;13.40;99.90
25918;DHT22;13899;51.174;4.456;2022-10-16T01:42:44;13.40;99.90
25918;DHT22;13899;51.174;4.456;2022-10-16T01:45:13;13.40;99.90
25918;DHT22;13899;51.174;4.456;2022-10-16T01:47:41;13.40;99.90
25918;DHT22;13899;51.174;4.456;2022-10-16T01:50:08;13.40;99.90
25918;DHT22;13899;51.174;4.456;2022-10-16T01:52:36;13.30;99.90
25918;DHT22;13899;51.174;4.456;2022-10-16T01:55:05;13.30;99.90
25918;DHT22;13899;51.174;4.456;2022-10-16T01:57:34;13.30;99.90
25918;DHT22;13899;51.174;4.456;2022-10-16T02:00:07;13.30;99.90
25918;DHT22;13899;51.174;4.456;2022-10-16T02:02:34;13.30;99.90
25918;DHT22;13899;51.174;4.456;2022-10-16T02:05:16;13.20;99.90
25918;DHT22;13899;51.174;4.456;2022-10-16T02:07:44;13.20;99.90
25918;DHT22;13899;51.174;4.456;2022-10-16T02:10:09;13.20;99.90
25918;DHT22;13899;51.174;4.456;2022-10-16T02:12:38;13.20;99.90
25918;DHT22;13899;51.174;4.456;2022-10-16T02:15:06;13.20;99.90
25918;DHT22;13899;51.174;4.456;2022-10-16T02:17:32;13.10;99.90
25918;DHT22;13899;51.174;4.456;2022-10-16T02:19:59;13.10;99.90
25918;DHT22;13899;51.174;4.456;2022-10-16T02:22:39;13.20;99.90
25918;DHT22;13899;51.174;4.456;2022-10-16T02:25:25;13.20;99.90
25918;DHT22;13899;51.174;4.456;2022-10-16T02:28:06;13.10;99.90
25918;DHT22;13899;51.174;4.456;2022-10-16T02:33:03;13.10;99.90
25918;DHT22;13899;51.174;4.456;2022-10-16T02:35:31;13.00;99.90
25918;DHT22;13899;51.174;4.456;2022-10-16T02:37:57;13.10;99.90
25918;DHT22;13899;51.174;4.456;2022-10-16T02:40:24;13.00;99.90
25918;DHT22;13899;51.174;4.456;2022-10-16T02:42:52;13.00;99.90
25918;DHT22;13899;51.174;4.456;2022-10-16T02:45:19;13.00;99.90
25918;DHT22;13899;51.174;4.456;2022-10-16T02:47:44;13.00;99.90
25918;DHT22;13899;51.174;4.456;2022-10-16T02:50:10;13.10;99.90
25918;DHT22;13899;51.174;4.456;2022-10-16T02:52:36;13.10;99.90
25918;DHT22;13899;51.174;4.456;2022-10-16T02:55:01;13.10;99.90
25918;DHT22;13899;51.174;4.456;2022-10-16T02:57:27;13.10;99.90
25918;DHT22;13899;51.174;4.456;2022-10-16T02:59:53;13.00;99.90
25918;DHT22;13899;51.174;4.456;2022-10-16T03:02:19;13.00;99.90
25918;DHT22;13899;51.174;4.456;2022-10-16T03:04:45;13.00;99.90
25918;DHT22;13899;51.174;4.456;2022-10-16T03:07:10;13.00;99.90
25918;DHT22;13899;51.174;4.456;2022-10-16T03:09:36;13.10;99.90
25918;DHT22;13899;51.174;4.456;2022-10-16T03:12:02;13.20;99.90
25918;DHT22;13899;51.174;4.456;2022-10-16T03:14:27;13.10;99.90
25918;DHT22;13899;51.174;4.456;2022-10-16T03:16:53;13.10;99.90
25918;DHT22;13899;51.174;4.456;2022-10-16T03:19:19;13.10;99.90
25918;DHT22;13899;51.174;4.456;2022-10-16T03:21:44;13.10;99.90
25918;DHT22;13899;51.174;4.456;2022-10-16T03:24:10;13.10;99.90
25918;DHT22;13899;51.174;4.456;2022-10-16T03:26:36;13.10;99.90
25918;DHT22;13899;51.174;4.456;2022-10-16T03:29:03;13.10;99.90
25918;DHT22;13899;51.174;4.456;2022-10-16T03:31:29;13.20;99.90
25918;DHT22;13899;51.174;4.456;2022-10-16T03:33:55;13.20;99.90
25918;DHT22;13899;51.174;4.456;2022-10-16T03:36:21;13.20;99.90
25918;DHT22;13899;51.174;4.456;2022-10-16T03:38:46;13.10;99.90
25918;DHT22;13899;51.174;4.456;2022-10-16T03:41:12;13.10;99.90
25918;DHT22;13899;51.174;4.456;2022-10-16T03:43:38;13.10;99.90
25918;DHT22;13899;51.174;4.456;2022-10-16T03:46:03;13.20;99.90
25918;DHT22;13899;51.174;4.456;2022-10-16T03:48:29;13.20;99.90
25918;DHT22;13899;51.174;4.456;2022-10-16T03:50:55;13.10;99.90
25918;DHT22;13899;51.174;4.456;2022-10-16T03:53:21;13.10;99.90
25918;DHT22;13899;51.174;4.456;2022-10-16T03:55:46;13.10;99.90
25918;DHT22;13899;51.174;4.456;2022-10-16T03:58:12;13.20;99.90
25918;DHT22;13899;51.174;4.456;2022-10-16T04:00:44;13.10;99.90
25918;DHT22;13899;51.174;4.456;2022-10-16T04:03:10;13.10;99.90
25918;DHT22;13899;51.174;4.456;2022-10-16T04:05:36;13.10;99.90
25918;DHT22;13899;51.174;4.456;2022-10-16T04:08:02;13.10;99.90
25918;DHT22;13899;51.174;4.456;2022-10-16T04:10:28;13.10;99.90
25918;DHT22;13899;51.174;4.456;2022-10-16T04:12:53;13.10;99.90
25918;DHT22;13899;51.174;4.456;2022-10-16T04:15:22;13.10;99.90
25918;DHT22;13899;51.174;4.456;2022-10-16T04:17:47;13.10;99.90
25918;DHT22;13899;51.174;4.456;2022-10-16T04:20:13;13.10;99.90
25918;DHT22;13899;51.174;4.456;2022-10-16T04:22:38;13.10;99.90
25918;DHT22;13899;51.174;4.456;2022-10-16T04:25:04;13.10;99.90
25918;DHT22;13899;51.174;4.456;2022-10-16T04:27:30;13.10;99.90
25918;DHT22;13899;51.174;4.456;2022-10-16T04:29:57;13.10;99.90
25918;DHT22;13899;51.174;4.456;2022-10-16T04:32:23;13.10;99.90
25918;DHT22;13899;51.174;4.456;2022-10-16T04:34:49;13.10;99.90
25918;DHT22;13899;51.174;4.456;2022-10-16T04:37:14;13.00;99.90
25918;DHT22;13899;51.174;4.456;2022-10-16T04:39:40;13.00;99.90
25918;DHT22;13899;51.174;4.456;2022-10-16T04:42:06;13.00;99.90
25918;DHT22;13899;51.174;4.456;2022-10-16T04:44:31;13.00;99.90
25918;DHT22;13899;51.174;4.456;2022-10-16T04:46:57;13.10;99.90
25918;DHT22;13899;51.174;4.456;2022-10-16T04:49:22;13.00;99.90
25918;DHT22;13899;51.174;4.456;2022-10-16T04:51:48;12.90;99.90
25918;DHT22;13899;51.174;4.456;2022-10-16T04:54:13;12.90;99.90
25918;DHT22;13899;51.174;4.456;2022-10-16T04:56:39;13.00;99.90
25918;DHT22;13899;51.174;4.456;2022-10-16T04:59:16;12.90;99.90
25918;DHT22;13899;51.174;4.456;2022-10-16T05:01:42;12.90;99.90
25918;DHT22;13899;51.174;4.456;2022-10-16T05:04:07;12.90;99.90
25918;DHT22;13899;51.174;4.456;2022-10-16T05:06:33;12.90;99.90
25918;DHT22;13899;51.174;4.456;2022-10-16T05:08:59;12.90;99.90
25918;DHT22;13899;51.174;4.456;2022-10-16T05:11:24;12.90;99.90
25918;DHT22;13899;51.174;4.456;2022-10-16T05:13:50;12.80;99.90
25918;DHT22;13899;51.174;4.456;2022-10-16T05:16:16;12.80;99.90
25918;DHT22;13899;51.174;4.456;2022-10-16T05:18:41;12.80;99.90
25918;DHT22;13899;51.174;4.456;2022-10-16T05:21:07;12.80;99.90
25918;DHT22;13899;51.174;4.456;2022-10-16T05:23:32;12.70;99.90
25918;DHT22;13899;51.174;4.456;2022-10-16T05:25:59;12.80;99.90
25918;DHT22;13899;51.174;4.456;2022-10-16T05:28:26;12.70;99.90
25918;DHT22;13899;51.174;4.456;2022-10-16T05:30:52;12.70;99.90
25918;DHT22;13899;51.174;4.456;2022-10-16T05:33:20;12.70;99.90
25918;DHT22;13899;51.174;4.456;2022-10-16T05:35:45;12.70;99.90
25918;DHT22;13899;51.174;4.456;2022-10-16T05:38:11;12.80;99.90
25918;DHT22;13899;51.174;4.456;2022-10-16T05:40:37;12.70;99.90
25918;DHT22;13899;51.174;4.456;2022-10-16T05:43:03;12.60;99.90
25918;DHT22;13899;51.174;4.456;2022-10-16T05:45:28;12.60;99.90
25918;DHT22;13899;51.174;4.456;2022-10-16T05:47:54;12.60;99.90
25918;DHT22;13899;51.174;4.456;2022-10-16T05:50:19;12.60;99.90
25918;DHT22;13899;51.174;4.456;2022-10-16T05:52:45;12.60;99.90
25918;DHT22;13899;51.174;4.456;2022-10-16T05:55:10;12.60;99.90
25918;DHT22;13899;51.174;4.456;2022-10-16T05:57:36;12.70;99.90
25918;DHT22;13899;51.174;4.456;2022-10-16T06:00:03;12.60;99.90
25918;DHT22;13899;51.174;4.456;2022-10-16T06:02:29;12.60;99.90
25918;DHT22;13899;51.174;4.456;2022-10-16T06:04:54;12.60;99.90
25918;DHT22;13899;51.174;4.456;2022-10-16T06:07:20;12.60;99.90
25918;DHT22;13899;51.174;4.456;2022-10-16T06:09:53;12.70;99.90
25918;DHT22;13899;51.174;4.456;2022-10-16T06:12:19;12.70;99.90
25918;DHT22;13899;51.174;4.456;2022-10-16T06:14:45;12.70;99.90
25918;DHT22;13899;51.174;4.456;2022-10-16T06:17:15;12.80;99.90
25918;DHT22;13899;51.174;4.456;2022-10-16T06:19:40;12.80;99.90
25918;DHT22;13899;51.174;4.456;2022-10-16T06:22:06;12.90;99.90
25918;DHT22;13899;51.174;4.456;2022-10-16T06:24:32;12.90;99.90
25918;DHT22;13899;51.174;4.456;2022-10-16T06:26:57;12.90;99.90
25918;DHT22;13899;51.174;4.456;2022-10-16T06:29:23;13.00;99.90
25918;DHT22;13899;51.174;4.456;2022-10-16T06:31:48;12.90;99.90
25918;DHT22;13899;51.174;4.456;2022-10-16T06:34:14;12.90;99.90
25918;DHT22;13899;51.174;4.456;2022-10-16T06:36:40;12.90;99.90
25918;DHT22;13899;51.174;4.456;2022-10-16T06:39:06;12.90;99.90
25918;DHT22;13899;51.174;4.456;2022-10-16T06:41:33;12.90;99.90
25918;DHT22;13899;51.174;4.456;2022-10-16T06:43:58;12.90;99.90
25918;DHT22;13899;51.174;4.456;2022-10-16T06:46:25;12.90;99.90
25918;DHT22;13899;51.174;4.456;2022-10-16T06:48:52;12.90;99.90
25918;DHT22;13899;51.174;4.456;2022-10-16T06:51:21;12.80;99.90
25918;DHT22;13899;51.174;4.456;2022-10-16T06:53:50;12.80;99.90
25918;DHT22;13899;51.174;4.456;2022-10-16T06:56:19;12.90;99.90
25918;DHT22;13899;51.174;4.456;2022-10-16T06:58:45;12.90;99.90
25918;DHT22;13899;51.174;4.456;2022-10-16T07:01:12;12.80;99.90
25918;DHT22;13899;51.174;4.456;2022-10-16T07:03:40;12.90;99.90
25918;DHT22;13899;51.174;4.456;2022-10-16T07:06:07;12.90;99.90
25918;DHT22;13899;51.174;4.456;2022-10-16T07:08:35;13.00;99.90
25918;DHT22;13899;51.174;4.456;2022-10-16T07:11:06;13.10;99.90
25918;DHT22;13899;51.174;4.456;2022-10-16T07:13:36;13.20;99.90
25918;DHT22;13899;51.174;4.456;2022-10-16T07:16:23;13.20;99.90
25918;DHT22;13899;51.174;4.456;2022-10-16T07:18:49;13.30;99.90
25918;DHT22;13899;51.174;4.456;2022-10-16T07:21:19;13.30;99.90
25918;DHT22;13899;51.174;4.456;2022-10-16T07:23:49;13.50;99.90
25918;DHT22;13899;51.174;4.456;2022-10-16T07:26:15;13.50;99.90
25918;DHT22;13899;51.174;4.456;2022-10-16T07:28:42;13.60;99.90
25918;DHT22;13899;51.174;4.456;2022-10-16T07:31:09;13.70;99.90
25918;DHT22;13899;51.174;4.456;2022-10-16T07:33:39;13.70;99.90
25918;DHT22;13899;51.174;4.456;2022-10-16T07:36:07;13.80;99.90
25918;DHT22;13899;51.174;4.456;2022-10-16T07:38:32;13.80;99.90
25918;DHT22;13899;51.174;4.456;2022-10-16T07:41:03;13.90;99.90
25918;DHT22;13899;51.174;4.456;2022-10-16T07:43:29;14.00;99.90
25918;DHT22;13899;51.174;4.456;2022-10-16T07:45:55;14.00;99.90
25918;DHT22;13899;51.174;4.456;2022-10-16T07:48:22;14.00;99.90
25918;DHT22;13899;51.174;4.456;2022-10-16T07:50:48;14.10;99.90
25918;DHT22;13899;51.174;4.456;2022-10-16T07:53:14;14.10;99.90
25918;DHT22;13899;51.174;4.456;2022-10-16T07:55:40;14.20;99.90
25918;DHT22;13899;51.174;4.456;2022-10-16T07:58:06;14.30;99.90
25918;DHT22;13899;51.174;4.456;2022-10-16T08:00:32;14.30;99.90
25918;DHT22;13899;51.174;4.456;2022-10-16T08:02:58;14.40;99.90
25918;DHT22;13899;51.174;4.456;2022-10-16T08:05:31;14.40;99.90
25918;DHT22;13899;51.174;4.456;2022-10-16T08:07:57;14.50;99.90
25918;DHT22;13899;51.174;4.456;2022-10-16T08:10:25;14.60;99.90
25918;DHT22;13899;51.174;4.456;2022-10-16T08:12:51;14.60;99.90
25918;DHT22;13899;51.174;4.456;2022-10-16T08:15:17;14.70;99.90
25918;DHT22;13899;51.174;4.456;2022-10-16T08:17:43;14.70;99.90
25918;DHT22;13899;51.174;4.456;2022-10-16T08:20:10;14.70;99.90
25918;DHT22;13899;51.174;4.456;2022-10-16T08:22:35;14.80;99.90
25918;DHT22;13899;51.174;4.456;2022-10-16T08:25:01;15.00;99.90
25918;DHT22;13899;51.174;4.456;2022-10-16T08:27:33;15.10;99.90
25918;DHT22;13899;51.174;4.456;2022-10-16T08:29:59;15.20;99.90
25918;DHT22;13899;51.174;4.456;2022-10-16T08:32:24;15.20;99.90
25918;DHT22;13899;51.174;4.456;2022-10-16T08:34:50;15.20;99.90
25918;DHT22;13899;51.174;4.456;2022-10-16T08:37:15;15.30;99.90
25918;DHT22;13899;51.174;4.456;2022-10-16T08:39:41;15.30;99.90
25918;DHT22;13899;51.174;4.456;2022-10-16T08:45:05;15.50;99.90
25918;DHT22;13899;51.174;4.456;2022-10-16T08:47:49;15.40;99.90
25918;DHT22;13899;51.174;4.456;2022-10-16T08:50:24;15.40;99.90
25918;DHT22;13899;51.174;4.456;2022-10-16T08:52:50;15.50;99.90
25918;DHT22;13899;51.174;4.456;2022-10-16T08:55:46;15.50;99.90
25918;DHT22;13899;51.174;4.456;2022-10-16T08:58:25;15.50;99.90
25918;DHT22;13899;51.174;4.456;2022-10-16T09:00:56;15.70;99.90
25918;DHT22;13899;51.174;4.456;2022-10-16T09:12:18;15.80;99.90
25918;DHT22;13899;51.174;4.456;2022-10-16T09:25:29;16.50;99.90
25918;DHT22;13899;51.174;4.456;2022-10-16T09:27:55;16.50;99.90
25918;DHT22;13899;51.174;4.456;2022-10-16T09:30:28;16.50;99.90
25918;DHT22;13899;51.174;4.456;2022-10-16T09:32:57;16.60;99.90
25918;DHT22;13899;51.174;4.456;2022-10-16T09:35:35;16.60;99.90
25918;DHT22;13899;51.174;4.456;2022-10-16T09:38:02;16.80;99.90
25918;DHT22;13899;51.174;4.456;2022-10-16T09:40:38;17.10;99.90
25918;DHT22;13899;51.174;4.456;2022-10-16T09:48:37;19.20;99.90
25918;DHT22;13899;51.174;4.456;2022-10-16T09:51:06;20.30;99.90
25918;DHT22;13899;51.174;4.456;2022-10-16T09:53:41;20.00;99.90
25918;DHT22;13899;51.174;4.456;2022-10-16T09:56:10;20.10;99.90
25918;DHT22;13899;51.174;4.456;2022-10-16T09:58:42;21.50;99.90
25918;DHT22;13899;51.174;4.456;2022-10-16T10:01:13;22.40;99.90
25918;DHT22;13899;51.174;4.456;2022-10-16T10:03:41;20.20;99.90
25918;DHT22;13899;51.174;4.456;2022-10-16T10:06:47;20.20;99.90
25918;DHT22;13899;51.174;4.456;2022-10-16T10:09:25;21.00;99.90
25918;DHT22;13899;51.174;4.456;2022-10-16T10:11:56;20.20;99.90
25918;DHT22;13899;51.174;4.456;2022-10-16T10:14:31;20.10;99.90
25918;DHT22;13899;51.174;4.456;2022-10-16T10:17:11;19.70;99.90
25918;DHT22;13899;51.174;4.456;2022-10-16T10:20:13;19.50;99.90
25918;DHT22;13899;51.174;4.456;2022-10-16T10:22:41;19.80;99.90
25918;DHT22;13899;51.174;4.456;2022-10-16T10:30:27;20.20;99.90
25918;DHT22;13899;51.174;4.456;2022-10-16T10:35:39;22.70;99.90
25918;DHT22;13899;51.174;4.456;2022-10-16T10:40:52;22.10;99.90
25918;DHT22;13899;51.174;4.456;2022-10-16T10:46:09;19.60;99.90
25918;DHT22;13899;51.174;4.456;2022-10-16T10:48:58;19.70;99.90
25918;DHT22;13899;51.174;4.456;2022-10-16T10:51:37;20.20;99.90
25918;DHT22;13899;51.174;4.456;2022-10-16T10:54:25;20.70;99.90
25918;DHT22;13899;51.174;4.456;2022-10-16T10:57:02;20.70;99.90
25918;DHT22;13899;51.174;4.456;2022-10-16T11:02:00;19.20;99.90
25918;DHT22;13899;51.174;4.456;2022-10-16T11:04:52;18.90;99.90
25918;DHT22;13899;51.174;4.456;2022-10-16T11:07:26;19.20;99.90
25918;DHT22;13899;51.174;4.456;2022-10-16T11:09:58;20.30;99.90
25918;DHT22;13899;51.174;4.456;2022-10-16T11:12:40;20.70;99.90
25918;DHT22;13899;51.174;4.456;2022-10-16T11:15:30;21.60;99.90
25918;DHT22;13899;51.174;4.456;2022-10-16T11:18:15;22.20;99.90
25918;DHT22;13899;51.174;4.456;2022-10-16T11:20:52;22.10;99.90
25918;DHT22;13899;51.174;4.456;2022-10-16T11:23:54;22.20;99.90
25918;DHT22;13899;51.174;4.456;2022-10-16T11:26:39;21.40;99.90
25918;DHT22;13899;51.174;4.456;2022-10-16T11:29:14;21.60;99.90
25918;DHT22;13899;51.174;4.456;2022-10-16T11:31:47;21.50;99.90
25918;DHT22;13899;51.174;4.456;2022-10-16T11:34:27;22.20;99.90
25918;DHT22;13899;51.174;4.456;2022-10-16T11:39:30;25.30;99.90
25918;DHT22;13899;51.174;4.456;2022-10-16T11:42:21;27.50;99.90
25918;DHT22;13899;51.174;4.456;2022-10-16T11:45:02;28.80;99.90
25918;DHT22;13899;51.174;4.456;2022-10-16T11:47:45;25.80;99.90
25918;DHT22;13899;51.174;4.456;2022-10-16T11:50:20;24.30;99.90
25918;DHT22;13899;51.174;4.456;2022-10-16T11:54:14;25.00;99.90
25918;DHT22;13899;51.174;4.456;2022-10-16T11:56:12;23.80;99.90
25918;DHT22;13899;51.174;4.456;2022-10-16T12:08:10;21.90;99.90
25918;DHT22;13899;51.174;4.456;2022-10-16T12:10:37;22.30;99.90
25918;DHT22;13899;51.174;4.456;2022-10-16T12:13:49;22.80;99.90
25918;DHT22;13899;51.174;4.456;2022-10-16T12:15:49;24.50;99.90
25918;DHT22;13899;51.174;4.456;2022-10-16T12:18:24;26.50;99.90
25918;DHT22;13899;51.174;4.456;2022-10-16T12:21:00;27.70;99.90
25918;DHT22;13899;51.174;4.456;2022-10-16T12:23:53;28.70;99.90
25918;DHT22;13899;51.174;4.456;2022-10-16T12:26:32;29.90;99.90
25918;DHT22;13899;51.174;4.456;2022-10-16T12:29:30;31.10;99.90
25918;DHT22;13899;51.174;4.456;2022-10-16T12:31:57;28.80;99.90
25918;DHT22;13899;51.174;4.456;2022-10-16T12:34:38;27.10;99.90
25918;DHT22;13899;51.174;4.456;2022-10-16T12:37:34;26.60;99.90
25918;DHT22;13899;51.174;4.456;2022-10-16T12:40:46;27.10;99.90
25918;DHT22;13899;51.174;4.456;2022-10-16T12:42:46;25.80;99.90
25918;DHT22;13899;51.174;4.456;2022-10-16T12:45:41;24.40;99.90
25918;DHT22;13899;51.174;4.456;2022-10-16T12:48:20;23.20;99.90
25918;DHT22;13899;51.174;4.456;2022-10-16T12:50:47;24.70;99.90
25918;DHT22;13899;51.174;4.456;2022-10-16T12:53:22;25.60;99.90
25918;DHT22;13899;51.174;4.456;2022-10-16T12:56:20;24.50;99.90
25918;DHT22;13899;51.174;4.456;2022-10-16T13:01:49;28.40;99.90
25918;DHT22;13899;51.174;4.456;2022-10-16T13:18:16;23.00;99.90
25918;DHT22;13899;51.174;4.456;2022-10-16T13:21:16;22.90;99.90
25918;DHT22;13899;51.174;4.456;2022-10-16T13:23:53;24.10;99.90
25918;DHT22;13899;51.174;4.456;2022-10-16T13:29:20;25.10;99.90
25918;DHT22;13899;51.174;4.456;2022-10-16T13:31:46;24.80;99.90
25918;DHT22;13899;51.174;4.456;2022-10-16T13:34:18;23.60;99.90
25918;DHT22;13899;51.174;4.456;2022-10-16T13:36:47;23.50;99.90
25918;DHT22;13899;51.174;4.456;2022-10-16T13:41:57;22.50;99.90
25918;DHT22;13899;51.174;4.456;2022-10-16T13:44:23;23.00;99.90
25918;DHT22;13899;51.174;4.456;2022-10-16T13:47:01;23.40;99.90
25918;DHT22;13899;51.174;4.456;2022-10-16T13:49:27;23.30;99.90
25918;DHT22;13899;51.174;4.456;2022-10-16T13:51:58;23.70;99.90
25918;DHT22;13899;51.174;4.456;2022-10-16T13:54:26;24.60;99.90
25918;DHT22;13899;51.174;4.456;2022-10-16T13:56:54;24.30;99.90
25918;DHT22;13899;51.174;4.456;2022-10-16T13:59:24;24.00;99.90
25918;DHT22;13899;51.174;4.456;2022-10-16T14:01:52;22.90;99.90
25918;DHT22;13899;51.174;4.456;2022-10-16T14:04:19;22.80;99.90
25918;DHT22;13899;51.174;4.456;2022-10-16T14:06:49;23.70;99.90
25918;DHT22;13899;51.174;4.456;2022-10-16T14:09:25;23.90;99.90
25918;DHT22;13899;51.174;4.456;2022-10-16T14:12:06;24.80;99.90
25918;DHT22;13899;51.174;4.456;2022-10-16T14:14:42;24.80;99.90
25918;DHT22;13899;51.174;4.456;2022-10-16T14:17:34;24.80;99.90
25918;DHT22;13899;51.174;4.456;2022-10-16T14:20:04;23.50;99.90
25918;DHT22;13899;51.174;4.456;2022-10-16T14:22:35;22.70;99.90
25918;DHT22;13899;51.174;4.456;2022-10-16T14:25:24;23.20;99.90
25918;DHT22;13899;51.174;4.456;2022-10-16T14:27:59;24.40;99.90
25918;DHT22;13899;51.174;4.456;2022-10-16T14:30:26;24.30;99.90
25918;DHT22;13899;51.174;4.456;2022-10-16T14:32:59;24.90;99.90
25918;DHT22;13899;51.174;4.456;2022-10-16T14:37:56;24.70;99.90
25918;DHT22;13899;51.174;4.456;2022-10-16T14:40:26;25.70;99.90
25918;DHT22;13899;51.174;4.456;2022-10-16T14:42:53;26.40;99.90
25918;DHT22;13899;51.174;4.456;2022-10-16T14:45:21;28.60;99.90
25918;DHT22;13899;51.174;4.456;2022-10-16T14:47:53;28.90;99.90
25918;DHT22;13899;51.174;4.456;2022-10-16T14:50:19;28.50;99.90
25918;DHT22;13899;51.174;4.456;2022-10-16T14:52:45;27.60;99.90
25918;DHT22;13899;51.174;4.456;2022-10-16T14:55:11;26.10;99.90
25918;DHT22;13899;51.174;4.456;2022-10-16T14:57:38;25.60;99.90
25918;DHT22;13899;51.174;4.456;2022-10-16T15:00:16;24.40;99.90
25918;DHT22;13899;51.174;4.456;2022-10-16T15:02:42;24.00;99.90
25918;DHT22;13899;51.174;4.456;2022-10-16T15:05:20;23.30;99.90
25918;DHT22;13899;51.174;4.456;2022-10-16T15:07:47;23.00;99.90
25918;DHT22;13899;51.174;4.456;2022-10-16T15:10:15;22.20;99.90
25918;DHT22;13899;51.174;4.456;2022-10-16T15:12:41;22.30;99.90
25918;DHT22;13899;51.174;4.456;2022-10-16T15:15:28;22.50;99.90
25918;DHT22;13899;51.174;4.456;2022-10-16T15:17:56;22.80;99.90
25918;DHT22;13899;51.174;4.456;2022-10-16T15:20:26;22.90;99.90
25918;DHT22;13899;51.174;4.456;2022-10-16T15:22:53;22.50;99.90
25918;DHT22;13899;51.174;4.456;2022-10-16T15:25:37;22.00;99.90
25918;DHT22;13899;51.174;4.456;2022-10-16T15:28:05;22.00;99.90
25918;DHT22;13899;51.174;4.456;2022-10-16T15:30:32;22.10;99.90
25918;DHT22;13899;51.174;4.456;2022-10-16T15:32:58;22.30;99.90
25918;DHT22;13899;51.174;4.456;2022-10-16T15:35:24;22.50;99.90
25918;DHT22;13899;51.174;4.456;2022-10-16T15:37:50;22.40;99.90
25918;DHT22;13899;51.174;4.456;2022-10-16T15:40:17;22.00;99.90
25918;DHT22;13899;51.174;4.456;2022-10-16T15:42:43;21.40;99.90
25918;DHT22;13899;51.174;4.456;2022-10-16T15:45:10;21.40;99.90
25918;DHT22;13899;51.174;4.456;2022-10-16T15:47:36;21.60;99.90
25918;DHT22;13899;51.174;4.456;2022-10-16T15:50:03;21.70;99.90
25918;DHT22;13899;51.174;4.456;2022-10-16T15:52:29;21.70;99.90
25918;DHT22;13899;51.174;4.456;2022-10-16T15:54:58;21.70;99.90
25918;DHT22;13899;51.174;4.456;2022-10-16T15:57:24;21.70;99.90
25918;DHT22;13899;51.174;4.456;2022-10-16T15:59:50;21.70;99.90
25918;DHT22;13899;51.174;4.456;2022-10-16T16:02:16;21.40;99.90
25918;DHT22;13899;51.174;4.456;2022-10-16T16:04:42;21.40;99.90
25918;DHT22;13899;51.174;4.456;2022-10-16T16:07:07;21.30;99.90
25918;DHT22;13899;51.174;4.456;2022-10-16T16:09:33;21.30;99.90
25918;DHT22;13899;51.174;4.456;2022-10-16T16:11:59;21.40;99.90
25918;DHT22;13899;51.174;4.456;2022-10-16T16:14:26;20.90;99.90
25918;DHT22;13899;51.174;4.456;2022-10-16T16:16:56;20.80;99.90
25918;DHT22;13899;51.174;4.456;2022-10-16T16:19:22;20.60;99.90
25918;DHT22;13899;51.174;4.456;2022-10-16T16:21:49;20.50;99.90
25918;DHT22;13899;51.174;4.456;2022-10-16T16:24:15;20.70;99.90
25918;DHT22;13899;51.174;4.456;2022-10-16T16:26:41;20.70;99.90
25918;DHT22;13899;51.174;4.456;2022-10-16T16:29:12;20.60;99.90
25918;DHT22;13899;51.174;4.456;2022-10-16T16:31:39;20.60;99.90
25918;DHT22;13899;51.174;4.456;2022-10-16T16:34:05;20.50;99.90
25918;DHT22;13899;51.174;4.456;2022-10-16T16:36:31;20.50;99.90
25918;DHT22;13899;51.174;4.456;2022-10-16T16:38:57;20.40;99.90
25918;DHT22;13899;51.174;4.456;2022-10-16T16:41:25;20.40;99.90
25918;DHT22;13899;51.174;4.456;2022-10-16T16:43:52;20.20;99.90
25918;DHT22;13899;51.174;4.456;2022-10-16T16:46:19;20.20;99.90
25918;DHT22;13899;51.174;4.456;2022-10-16T16:48:45;20.00;99.90
25918;DHT22;13899;51.174;4.456;2022-10-16T16:51:14;20.20;99.90
25918;DHT22;13899;51.174;4.456;2022-10-16T16:53:42;20.20;99.90
25918;DHT22;13899;51.174;4.456;2022-10-16T16:56:08;20.10;99.90
25918;DHT22;13899;51.174;4.456;2022-10-16T16:58:34;20.10;99.90
25918;DHT22;13899;51.174;4.456;2022-10-16T17:01:01;20.00;99.90
25918;DHT22;13899;51.174;4.456;2022-10-16T17:03:47;20.00;99.90
25918;DHT22;13899;51.174;4.456;2022-10-16T17:06:15;20.00;99.90
25918;DHT22;13899;51.174;4.456;2022-10-16T17:08:42;19.90;99.90
25918;DHT22;13899;51.174;4.456;2022-10-16T17:11:16;20.00;99.90
25918;DHT22;13899;51.174;4.456;2022-10-16T17:13:42;20.00;99.90
25918;DHT22;13899;51.174;4.456;2022-10-16T17:16:08;20.00;99.90
25918;DHT22;13899;51.174;4.456;2022-10-16T17:18:34;20.00;99.90
25918;DHT22;13899;51.174;4.456;2022-10-16T17:21:05;20.00;99.90
25918;DHT22;13899;51.174;4.456;2022-10-16T17:23:32;19.90;99.90